createdAt,value
2022-10-30T00:00:32.705Z,16.50
2022-10-30T00:03:00.080Z,16.30
2022-10-30T00:05:27.697Z,16.30
2022-10-30T00:07:58.804Z,16.30
2022-10-30T00:10:26.168Z,16.40
2022-10-30T00:12:56.354Z,16.50
2022-10-30T00:15:23.268Z,16.30
2022-10-30T00:17:50.154Z,16.30
2022-10-30T00:20:17.153Z,16.50
2022-10-30T00:22:44.069Z,16.50
2022-10-30T00:25:11.089Z,16.50
2022-10-30T00:27:37.978Z,16.40
2022-10-30T00:30:05.356Z,16.50
2022-10-30T00:32:32.267Z,16.50
2022-10-30T00:34:59.279Z,16.70
2022-10-30T00:37:26.154Z,16.60
2022-10-30T00:39:55.520Z,16.70
2022-10-30T00:42:22.500Z,16.70
2022-10-30T00:44:53.468Z,16.80
2022-10-30T00:47:43.398Z,17.00
2022-10-30T00:53:09.015Z,17.20
2022-10-30T00:55:42.079Z,17.30
2022-10-30T00:58:12.779Z,17.30
2022-10-30T01:00:43.765Z,17.40
2022-10-30T01:03:11.039Z,17.40
2022-10-30T01:05:39.417Z,17.40
2022-10-30T01:08:06.538Z,17.40
2022-10-30T01:10:33.563Z,17.40
2022-10-30T01:13:02.089Z,17.40
2022-10-30T01:15:35.800Z,17.40
2022-10-30T01:18:22.970Z,17.50
2022-10-30T01:21:14.705Z,17.40
2022-10-30T01:24:06.212Z,17.40
2022-10-30T01:27:05.318Z,17.30
2022-10-30T01:29:35.560Z,17.30
2022-10-30T01:32:31.516Z,17.30
2022-10-30T01:35:20.132Z,17.30
2022-10-30T01:38:29.412Z,17.30
2022-10-30T01:40:58.056Z,17.30
2022-10-30T01:43:26.237Z,17.30
2022-10-30T01:46:07.335Z,17.30
2022-10-30T01:48:58.444Z,17.30
2022-10-30T01:51:49.684Z,17.30
2022-10-30T01:54:46.878Z,17.20
2022-10-30T01:57:25.079Z,17.00
2022-10-30T02:00:10.417Z,16.80
2022-10-30T02:02:40.671Z,16.80
2022-10-30T02:05:16.963Z,16.80
2022-10-30T02:07:43.856Z,16.80
2022-10-30T02:10:12.248Z,16.80
2022-10-30T02:12:39.516Z,16.80
2022-10-30T02:15:06.920Z,16.80
2022-10-30T02:17:34.408Z,16.80
2022-10-30T02:20:01.334Z,16.60
2022-10-30T02:22:30.284Z,16.40
2022-10-30T02:24:57.285Z,16.20
2022-10-30T02:27:25.256Z,16.00
2022-10-30T02:29:52.912Z,15.90
2022-10-30T02:32:19.818Z,15.90
2022-10-30T02:34:46.809Z,15.90
2022-10-30T02:37:14.646Z,15.70
2022-10-30T02:39:41.720Z,15.60
2022-10-30T02:42:08.706Z,15.60
2022-10-30T02:44:35.699Z,15.60
2022-10-30T02:47:02.760Z,15.50
2022-10-30T02:49:29.710Z,15.50
2022-10-30T02:51:56.638Z,15.60
2022-10-30T02:54:23.823Z,15.70
2022-10-30T02:56:50.972Z,15.60
2022-10-30T02:59:17.933Z,15.50
2022-10-30T03:01:45.070Z,15.90
2022-10-30T03:04:12.219Z,15.90
2022-10-30T03:06:39.116Z,15.80
2022-10-30T03:09:06.062Z,15.60
2022-10-30T03:11:34.822Z,15.50
2022-10-30T03:14:01.865Z,15.70
2022-10-30T03:16:29.537Z,15.80
2022-10-30T03:18:57.856Z,15.90
2022-10-30T03:21:27.450Z,15.70
2022-10-30T03:23:54.896Z,15.60
2022-10-30T03:26:23.247Z,15.70
2022-10-30T03:28:53.849Z,15.60
2022-10-30T03:31:21.291Z,15.40
2022-10-30T03:33:57.964Z,15.30
2022-10-30T03:36:27.147Z,15.20
2022-10-30T03:38:54.295Z,15.40
2022-10-30T03:41:21.289Z,15.70
2022-10-30T03:43:48.203Z,15.90
2022-10-30T03:46:15.211Z,16.10
2022-10-30T03:48:42.185Z,16.10
2022-10-30T03:51:10.370Z,15.90
2022-10-30T03:53:37.369Z,16.00
2022-10-30T03:56:05.059Z,16.20
2022-10-30T03:58:41.552Z,16.20
2022-10-30T04:01:11.717Z,16.00
2022-10-30T04:03:43.513Z,16.10
2022-10-30T04:06:11.648Z,16.30
2022-10-30T04:08:38.645Z,16.30
2022-10-30T04:11:05.834Z,16.10
2022-10-30T04:13:32.939Z,16.00
2022-10-30T04:15:59.883Z,15.80
2022-10-30T04:18:26.943Z,15.60
2022-10-30T04:20:55.443Z,15.60
2022-10-30T04:23:23.043Z,15.60
2022-10-30T04:25:50.112Z,15.80
2022-10-30T04:28:18.010Z,15.90
2022-10-30T04:30:47.042Z,16.10
2022-10-30T04:33:16.116Z,16.20
2022-10-30T04:35:43.670Z,16.40
2022-10-30T04:38:19.668Z,16.50
2022-10-30T04:40:47.934Z,16.50
2022-10-30T04:43:16.427Z,16.50
2022-10-30T04:45:47.725Z,16.60
2022-10-30T04:48:17.324Z,16.70
2022-10-30T04:50:44.883Z,16.70
2022-10-30T04:53:19.625Z,16.70
2022-10-30T04:55:54.097Z,16.70
2022-10-30T04:58:21.429Z,16.70
2022-10-30T05:00:58.999Z,16.70
2022-10-30T05:03:29.205Z,16.70
2022-10-30T05:05:59.679Z,16.70
2022-10-30T05:08:26.878Z,16.70
2022-10-30T05:10:54.680Z,16.70
2022-10-30T05:13:21.989Z,16.70
2022-10-30T05:15:48.951Z,16.70
2022-10-30T05:18:15.882Z,16.60
2022-10-30T05:20:43.677Z,16.60
2022-10-30T05:23:10.685Z,16.50
2022-10-30T05:25:37.913Z,16.40
2022-10-30T05:28:07.795Z,16.30
2022-10-30T05:30:42.939Z,16.20
2022-10-30T05:33:19.453Z,16.10
2022-10-30T05:35:48.009Z,16.00
2022-10-30T05:38:15.580Z,16.00
2022-10-30T05:40:45.842Z,15.90
2022-10-30T05:43:13.290Z,15.80
2022-10-30T05:45:40.719Z,15.70
2022-10-30T05:48:08.184Z,15.60
2022-10-30T05:50:42.219Z,15.50
2022-10-30T05:53:19.804Z,15.40
2022-10-30T05:55:46.773Z,15.10
2022-10-30T05:58:20.081Z,14.80
2022-10-30T06:00:48.432Z,14.60
2022-10-30T06:03:21.233Z,14.40
2022-10-30T06:05:48.615Z,14.10
2022-10-30T06:08:16.640Z,14.00
2022-10-30T06:10:45.246Z,13.90
2022-10-30T06:13:25.694Z,14.00
2022-10-30T06:16:12.413Z,14.20
2022-10-30T06:19:09.391Z,14.60
2022-10-30T06:21:38.646Z,14.80
2022-10-30T06:24:18.883Z,14.80
2022-10-30T06:27:04.472Z,14.90
2022-10-30T06:29:31.431Z,14.70
2022-10-30T06:32:00.829Z,14.70
2022-10-30T06:34:33.062Z,14.80
2022-10-30T06:37:00.166Z,14.90
2022-10-30T06:39:27.985Z,14.80
2022-10-30T06:42:13.374Z,14.90
2022-10-30T06:45:06.979Z,15.00
2022-10-30T06:47:36.004Z,15.10
2022-10-30T06:50:07.658Z,15.10
2022-10-30T06:52:35.096Z,15.00
2022-10-30T06:55:04.360Z,14.90
2022-10-30T06:57:44.293Z,14.90
2022-10-30T07:00:37.450Z,14.80
2022-10-30T07:03:35.390Z,14.80
2022-10-30T07:06:02.556Z,14.80
2022-10-30T07:08:32.308Z,14.90
2022-10-30T07:11:00.917Z,14.80
2022-10-30T07:14:03.306Z,14.90
2022-10-30T07:16:43.261Z,14.90
2022-10-30T07:19:11.043Z,14.90
2022-10-30T07:21:38.180Z,14.90
2022-10-30T07:24:06.896Z,15.00
2022-10-30T07:26:55.321Z,15.00
2022-10-30T07:29:42.129Z,14.90
2022-10-30T07:32:24.972Z,14.80
2022-10-30T07:35:31.366Z,14.80
2022-10-30T07:38:05.376Z,14.80
2022-10-30T07:41:01.417Z,14.90
2022-10-30T07:43:43.501Z,15.00
2022-10-30T07:46:29.960Z,15.00
2022-10-30T07:49:19.670Z,15.10
2022-10-30T07:51:53.008Z,15.20
2022-10-30T07:54:20.410Z,15.30
2022-10-30T07:56:48.110Z,15.40
2022-10-30T07:59:41.463Z,15.50
2022-10-30T08:02:27.461Z,15.50
2022-10-30T08:05:13.034Z,15.60
2022-10-30T08:08:02.951Z,15.70
2022-10-30T08:10:30.009Z,15.70
2022-10-30T08:12:57.469Z,15.80
2022-10-30T08:15:24.773Z,15.90
2022-10-30T08:17:52.175Z,15.90
2022-10-30T08:20:22.827Z,16.10
2022-10-30T08:23:00.121Z,16.30
2022-10-30T08:25:29.410Z,16.30
2022-10-30T08:28:07.522Z,16.50
2022-10-30T08:30:38.644Z,16.60
2022-10-30T08:33:13.670Z,16.60
2022-10-30T08:36:00.169Z,16.60
2022-10-30T08:38:28.284Z,16.60
2022-10-30T08:41:17.827Z,16.60
2022-10-30T08:43:48.443Z,16.70
2022-10-30T08:46:15.444Z,16.80
2022-10-30T08:48:42.985Z,16.80
2022-10-30T08:51:10.143Z,16.80
2022-10-30T08:53:43.273Z,16.90
2022-10-30T08:56:13.816Z,17.00
2022-10-30T08:59:06.827Z,17.00
2022-10-30T09:01:36.870Z,17.20
2022-10-30T09:04:12.992Z,17.20
2022-10-30T09:07:00.207Z,17.30
2022-10-30T09:09:39.045Z,17.40
2022-10-30T09:12:07.070Z,17.50
2022-10-30T09:14:40.575Z,17.60
2022-10-30T09:17:09.551Z,17.70
2022-10-30T09:19:38.103Z,17.80
2022-10-30T09:22:05.978Z,17.90
2022-10-30T09:24:38.957Z,17.90
2022-10-30T09:27:41.080Z,18.10
2022-10-30T09:30:11.848Z,18.30
2022-10-30T09:32:43.587Z,18.40
2022-10-30T09:35:34.724Z,18.70
2022-10-30T09:38:52.563Z,18.80
2022-10-30T09:41:51.218Z,18.90
2022-10-30T09:44:48.743Z,19.10
2022-10-30T09:48:02.854Z,19.60
2022-10-30T09:50:54.816Z,20.00
2022-10-30T09:53:46.428Z,20.50
2022-10-30T09:56:45.312Z,20.60
2022-10-30T09:59:45.075Z,20.90
2022-10-30T10:02:28.531Z,21.00
2022-10-30T10:05:36.661Z,21.20
2022-10-30T10:08:39.434Z,21.40
2022-10-30T10:11:39.579Z,21.50
2022-10-30T10:14:24.502Z,21.50
2022-10-30T10:16:56.585Z,21.60
2022-10-30T10:19:32.522Z,21.80
2022-10-30T10:22:02.673Z,22.00
2022-10-30T10:24:36.803Z,22.10
2022-10-30T10:27:19.648Z,22.20
2022-10-30T10:30:04.363Z,22.30
2022-10-30T10:32:49.426Z,22.30
2022-10-30T10:35:19.459Z,22.30
2022-10-30T10:37:58.716Z,22.60
2022-10-30T10:40:37.224Z,22.70
2022-10-30T10:43:31.887Z,22.90
2022-10-30T10:46:14.561Z,22.90
2022-10-30T10:49:18.681Z,22.90
2022-10-30T10:51:54.249Z,22.90
2022-10-30T10:54:42.065Z,22.80
2022-10-30T10:57:21.546Z,22.70
2022-10-30T10:59:53.917Z,22.70
2022-10-30T11:02:28.455Z,22.60
2022-10-30T11:05:04.496Z,22.50
2022-10-30T11:07:34.965Z,22.50
2022-10-30T11:10:02.068Z,22.50
2022-10-30T11:12:37.211Z,22.80
2022-10-30T11:15:36.477Z,22.60
2022-10-30T11:18:10.387Z,22.90
2022-10-30T11:20:42.511Z,23.10
2022-10-30T11:23:31.353Z,23.30
2022-10-30T11:25:58.888Z,23.40
2022-10-30T11:28:35.313Z,23.40
2022-10-30T11:31:22.942Z,23.60
2022-10-30T11:33:50.572Z,23.60
2022-10-30T11:36:25.900Z,23.70
2022-10-30T11:38:56.415Z,23.70
2022-10-30T11:41:23.557Z,23.70
2022-10-30T11:43:54.813Z,23.70
2022-10-30T11:46:37.343Z,23.80
2022-10-30T11:49:06.857Z,23.90
2022-10-30T11:51:52.049Z,24.20
2022-10-30T11:54:35.332Z,24.40
2022-10-30T11:57:05.951Z,24.10
2022-10-30T11:59:33.076Z,24.00
2022-10-30T12:02:30.308Z,24.20
2022-10-30T12:05:02.491Z,24.40
2022-10-30T12:07:34.809Z,24.40
2022-10-30T12:10:05.432Z,24.40
2022-10-30T12:12:44.878Z,24.60
2022-10-30T12:15:15.861Z,24.70
2022-10-30T12:17:53.265Z,24.60
2022-10-30T12:20:21.337Z,24.60
2022-10-30T12:22:49.666Z,24.60
2022-10-30T12:25:24.806Z,24.40
2022-10-30T12:28:05.698Z,24.30
2022-10-30T12:30:46.502Z,24.20
2022-10-30T12:33:22.705Z,24.10
2022-10-30T12:35:57.828Z,24.10
2022-10-30T12:38:34.450Z,24.10
2022-10-30T12:41:29.041Z,24.10
2022-10-30T12:44:12.309Z,24.20
2022-10-30T12:46:48.923Z,24.20
2022-10-30T12:49:40.156Z,24.30
2022-10-30T12:52:20.089Z,24.30
2022-10-30T12:54:53.537Z,24.30
2022-10-30T12:57:38.972Z,24.30
2022-10-30T13:00:16.795Z,24.30
2022-10-30T13:03:00.064Z,24.10
2022-10-30T13:05:59.816Z,24.20
2022-10-30T13:08:31.046Z,24.20
2022-10-30T13:11:18.699Z,24.00
2022-10-30T13:13:58.175Z,24.00
2022-10-30T13:16:30.077Z,24.10
2022-10-30T13:18:59.932Z,23.90
2022-10-30T13:21:26.792Z,23.60
2022-10-30T13:24:35.599Z,23.40
2022-10-30T13:27:10.169Z,23.50
2022-10-30T13:29:42.916Z,23.40
2022-10-30T13:32:36.923Z,23.30
2022-10-30T13:35:10.930Z,23.40
2022-10-30T13:37:43.568Z,23.50
2022-10-30T13:40:11.628Z,23.70
2022-10-30T13:42:56.652Z,23.80
2022-10-30T13:45:29.446Z,23.80
2022-10-30T13:48:11.585Z,23.90
2022-10-30T13:50:57.063Z,23.90
2022-10-30T13:53:28.091Z,24.10
2022-10-30T13:55:56.386Z,24.20
2022-10-30T13:58:39.552Z,24.10
2022-10-30T14:01:23.971Z,24.20
2022-10-30T14:04:01.420Z,24.20
2022-10-30T14:06:49.940Z,24.20
2022-10-30T14:09:33.283Z,24.20
2022-10-30T14:12:45.933Z,24.10
2022-10-30T14:15:30.772Z,23.80
2022-10-30T14:18:12.934Z,23.60
2022-10-30T14:20:52.551Z,23.40
2022-10-30T14:23:37.128Z,23.10
2022-10-30T14:26:06.954Z,22.90
2022-10-30T14:28:38.567Z,22.80
2022-10-30T14:31:13.969Z,22.60
2022-10-30T14:33:40.837Z,22.50
2022-10-30T14:36:15.939Z,22.40
2022-10-30T14:38:51.960Z,22.30
2022-10-30T14:41:25.525Z,22.10
2022-10-30T14:44:16.763Z,21.90
2022-10-30T14:47:03.013Z,21.60
2022-10-30T14:50:02.469Z,21.40
2022-10-30T14:52:43.819Z,21.10
2022-10-30T14:55:25.965Z,20.90
2022-10-30T14:58:02.088Z,20.70
2022-10-30T15:00:30.655Z,20.40
2022-10-30T15:03:20.462Z,20.20
2022-10-30T15:05:52.893Z,20.10
2022-10-30T15:09:00.523Z,20.00
2022-10-30T15:12:05.155Z,19.80
2022-10-30T15:17:29.973Z,19.40
2022-10-30T15:19:59.997Z,19.10
2022-10-30T15:22:28.942Z,18.90
2022-10-30T15:24:56.522Z,18.70
2022-10-30T15:27:24.490Z,18.50
2022-10-30T15:29:55.318Z,18.30
2022-10-30T15:32:24.540Z,18.10
2022-10-30T15:35:06.071Z,18.00
2022-10-30T15:37:33.012Z,17.80
2022-10-30T15:40:21.135Z,17.70
2022-10-30T15:42:50.121Z,17.50
2022-10-30T15:45:23.839Z,17.30
2022-10-30T15:48:06.042Z,17.20
2022-10-30T15:50:34.544Z,17.00
2022-10-30T15:53:02.011Z,16.80
2022-10-30T15:55:32.379Z,16.70
2022-10-30T15:58:04.756Z,16.50
2022-10-30T16:00:35.533Z,16.30
2022-10-30T16:03:12.965Z,16.10
2022-10-30T16:05:39.987Z,16.00
2022-10-30T16:08:15.448Z,15.80
2022-10-30T16:10:44.280Z,15.70
2022-10-30T16:13:18.366Z,15.60
2022-10-30T16:15:49.809Z,15.40
2022-10-30T16:18:23.464Z,15.30
2022-10-30T16:20:57.360Z,15.10
2022-10-30T16:23:24.821Z,15.00
2022-10-30T16:25:58.161Z,14.90
2022-10-30T16:28:34.826Z,14.90
2022-10-30T16:31:08.298Z,14.90
2022-10-30T16:33:37.373Z,14.90
2022-10-30T16:36:05.862Z,14.90
2022-10-30T16:38:39.348Z,14.80
2022-10-30T16:41:07.800Z,14.70
2022-10-30T16:43:35.649Z,14.60
2022-10-30T16:46:14.232Z,14.50
2022-10-30T16:48:54.648Z,14.40
2022-10-30T16:51:21.789Z,14.40
2022-10-30T16:53:50.395Z,14.20
2022-10-30T16:56:30.814Z,14.10
2022-10-30T16:59:13.675Z,14.10
2022-10-30T17:01:40.783Z,14.00
2022-10-30T17:06:44.644Z,13.90
2022-10-30T17:09:28.845Z,13.90
2022-10-30T17:12:07.934Z,14.00
2022-10-30T17:15:12.778Z,14.20
2022-10-30T17:17:42.335Z,14.20
2022-10-30T17:20:23.762Z,14.10
2022-10-30T17:23:16.325Z,14.00
2022-10-30T17:25:43.517Z,14.00
2022-10-30T17:28:30.138Z,14.00
2022-10-30T17:30:57.113Z,14.30
2022-10-30T17:33:37.617Z,14.40
2022-10-30T17:36:06.249Z,14.50
2022-10-30T17:38:33.413Z,14.60
2022-10-30T17:41:00.944Z,14.70
2022-10-30T17:43:31.055Z,14.70
2022-10-30T17:45:58.341Z,14.60
2022-10-30T17:48:30.075Z,14.50
2022-10-30T17:50:57.572Z,14.30
2022-10-30T17:53:25.723Z,14.20
2022-10-30T17:56:07.340Z,14.00
2022-10-30T17:58:34.273Z,13.90
2022-10-30T18:01:01.412Z,14.00
2022-10-30T18:03:28.596Z,14.20
2022-10-30T18:05:55.743Z,14.20
2022-10-30T18:08:23.030Z,14.10
2022-10-30T18:10:50.030Z,14.10
2022-10-30T18:13:16.903Z,14.20
2022-10-30T18:15:59.000Z,14.50
2022-10-30T18:18:25.911Z,14.50
2022-10-30T18:20:53.470Z,14.60
2022-10-30T18:26:24.998Z,14.80
2022-10-30T18:28:52.634Z,14.80
2022-10-30T18:31:22.716Z,14.80
2022-10-30T18:33:49.913Z,14.90
2022-10-30T18:36:22.551Z,15.00
2022-10-30T18:38:50.128Z,15.20
2022-10-30T18:41:23.635Z,15.30
2022-10-30T18:43:50.987Z,15.40
2022-10-30T18:46:18.027Z,15.40
2022-10-30T18:48:45.736Z,15.50
2022-10-30T18:51:18.485Z,15.60
2022-10-30T18:53:51.829Z,15.40
2022-10-30T18:56:30.918Z,15.50
2022-10-30T18:59:02.047Z,15.50
2022-10-30T19:01:32.475Z,15.70
2022-10-30T19:04:02.235Z,15.80
2022-10-30T19:06:29.812Z,15.70
2022-10-30T19:08:56.769Z,15.50
2022-10-30T19:11:25.235Z,15.60
2022-10-30T19:13:52.929Z,15.80
2022-10-30T19:16:20.833Z,15.80
2022-10-30T19:18:48.623Z,15.90
2022-10-30T19:21:21.745Z,15.80
2022-10-30T19:23:49.267Z,15.80
2022-10-30T19:26:17.544Z,15.80
2022-10-30T19:28:45.646Z,15.80
2022-10-30T19:31:17.962Z,15.80
2022-10-30T19:33:45.832Z,15.70
2022-10-30T19:36:37.798Z,15.60
2022-10-30T19:39:12.128Z,15.50
2022-10-30T19:41:40.143Z,15.30
2022-10-30T19:44:07.203Z,15.40
2022-10-30T19:46:34.593Z,15.50
2022-10-30T19:49:09.050Z,15.60
2022-10-30T19:51:35.954Z,15.80
2022-10-30T19:54:02.843Z,15.90
2022-10-30T19:56:30.377Z,16.00
2022-10-30T19:58:57.239Z,16.00
2022-10-30T20:01:25.447Z,16.00
2022-10-30T20:03:52.858Z,15.90
2022-10-30T20:06:21.445Z,15.90
2022-10-30T20:08:48.462Z,15.90
2022-10-30T20:11:15.415Z,15.70
2022-10-30T20:13:42.337Z,15.80
2022-10-30T20:16:11.285Z,15.70
2022-10-30T20:18:38.178Z,15.70
2022-10-30T20:21:10.038Z,15.90
2022-10-30T20:23:37.179Z,15.90
2022-10-30T20:26:25.917Z,16.00
2022-10-30T20:28:53.357Z,16.00
2022-10-30T20:31:20.792Z,16.00
2022-10-30T20:33:47.703Z,16.00
2022-10-30T20:36:15.034Z,16.00
2022-10-30T20:38:41.977Z,15.90
2022-10-30T20:41:23.243Z,15.80
2022-10-30T20:43:50.550Z,15.90
2022-10-30T20:46:19.604Z,15.80
2022-10-30T20:48:46.816Z,15.80
2022-10-30T20:51:14.684Z,15.70
2022-10-30T20:53:41.650Z,15.70
2022-10-30T20:56:08.637Z,15.50
2022-10-30T20:58:35.515Z,15.40
2022-10-30T21:01:02.538Z,15.40
2022-10-30T21:03:29.486Z,15.20
2022-10-30T21:05:58.535Z,15.10
2022-10-30T21:08:27.305Z,15.10
2022-10-30T21:11:02.078Z,15.10
2022-10-30T21:13:29.638Z,15.00
2022-10-30T21:16:01.824Z,15.10
2022-10-30T21:18:28.835Z,15.10
2022-10-30T21:21:02.496Z,15.20
2022-10-30T21:23:29.469Z,15.40
2022-10-30T21:26:03.922Z,15.40
2022-10-30T21:28:30.853Z,15.50
2022-10-30T21:31:06.266Z,15.60
2022-10-30T21:33:34.289Z,15.70
2022-10-30T21:36:13.285Z,15.80
2022-10-30T21:38:44.573Z,15.80
2022-10-30T21:41:13.716Z,15.80
2022-10-30T21:43:40.704Z,15.80
2022-10-30T21:46:08.740Z,15.80
2022-10-30T21:48:35.664Z,15.90
2022-10-30T21:51:13.716Z,15.90
2022-10-30T21:53:41.334Z,16.00
2022-10-30T21:56:16.554Z,15.90
2022-10-30T21:58:43.836Z,16.00
2022-10-30T22:01:24.012Z,16.00
2022-10-30T22:03:51.960Z,16.00
2022-10-30T22:06:20.795Z,16.00
2022-10-30T22:08:52.992Z,16.10
2022-10-30T22:11:22.172Z,16.10
2022-10-30T22:13:57.332Z,16.00
2022-10-30T22:16:25.495Z,15.90
2022-10-30T22:18:52.768Z,15.90
2022-10-30T22:21:19.707Z,15.80
2022-10-30T22:23:46.914Z,15.70
2022-10-30T22:26:19.167Z,15.70
2022-10-30T22:28:46.147Z,15.60
2022-10-30T22:31:15.901Z,15.60
2022-10-30T22:33:44.166Z,15.50
2022-10-30T22:36:17.354Z,15.50
2022-10-30T22:38:45.256Z,15.50
2022-10-30T22:41:18.783Z,15.50
2022-10-30T22:43:47.254Z,15.40
2022-10-30T22:46:16.518Z,15.30
2022-10-30T22:48:45.088Z,15.30
2022-10-30T22:51:16.692Z,15.30
2022-10-30T22:53:46.210Z,15.40
2022-10-30T22:56:16.569Z,15.30
2022-10-30T22:58:44.608Z,15.20
2022-10-30T23:01:20.886Z,15.20
2022-10-30T23:03:47.918Z,15.10
2022-10-30T23:06:15.161Z,15.00
2022-10-30T23:08:42.517Z,15.00
2022-10-30T23:11:10.082Z,15.00
2022-10-30T23:13:37.355Z,15.00
2022-10-30T23:16:07.708Z,14.90
2022-10-30T23:18:35.183Z,14.90
2022-10-30T23:21:12.385Z,14.90
2022-10-30T23:23:40.788Z,14.80
2022-10-30T23:26:16.865Z,14.80
2022-10-30T23:28:44.685Z,14.70
2022-10-30T23:31:40.378Z,14.70
2022-10-30T23:34:09.846Z,14.60
2022-10-30T23:36:37.292Z,14.60
2022-10-30T23:39:07.597Z,14.50
2022-10-30T23:41:34.931Z,14.40
2022-10-30T23:44:05.793Z,14.40
2022-10-30T23:46:33.696Z,14.30
2022-10-30T23:49:00.620Z,14.30
2022-10-30T23:51:27.680Z,14.30
2022-10-30T23:53:54.775Z,14.20
2022-10-30T23:56:21.768Z,14.00
2022-10-30T23:58:51.867Z,14.00
